createdAt,value
2018-02-23T00:11:12.769Z,-0.60
2018-02-23T00:31:46.747Z,-0.72
2018-02-23T00:52:22.028Z,-0.70
2018-02-23T01:12:56.987Z,-0.90
2018-02-23T01:33:31.653Z,-0.88
2018-02-23T01:54:09.677Z,-1.01
2018-02-23T02:14:45.869Z,-1.14
2018-02-23T02:35:21.140Z,-1.19
2018-02-23T02:56:00.666Z,-1.27
2018-02-23T03:16:37.829Z,-1.39
2018-02-23T03:37:11.873Z,-1.56
2018-02-23T03:57:49.910Z,-1.59
2018-02-23T04:18:28.253Z,-1.80
2018-02-23T04:39:03.879Z,-1.91
2018-02-23T04:59:29.009Z,-1.87
2018-02-23T05:20:03.929Z,-2.05
2018-02-23T05:40:38.279Z,-1.97
2018-02-23T06:01:11.400Z,-2.01
2018-02-23T06:21:48.932Z,-2.24
2018-02-23T06:42:21.941Z,-2.14
2018-02-23T07:02:53.221Z,-2.29
2018-02-23T07:23:20.198Z,-2.17
2018-02-23T07:43:55.759Z,-1.98
2018-02-23T08:04:32.957Z,-1.81
2018-02-23T08:25:08.192Z,-1.61
2018-02-23T08:45:43.125Z,-1.29
2018-02-23T09:06:21.469Z,-1.08
2018-02-23T09:26:56.918Z,-0.86
2018-02-23T09:47:28.938Z,-0.55
2018-02-23T10:08:06.057Z,-0.31
2018-02-23T10:28:39.183Z,0.05
2018-02-23T10:49:11.683Z,0.13
2018-02-23T11:09:46.646Z,0.34
2018-02-23T11:30:20.997Z,0.31
2018-02-23T11:50:55.039Z,0.48
2018-02-23T12:11:30.847Z,0.78
2018-02-23T12:32:04.658Z,0.81
2018-02-23T12:52:39.933Z,0.96
2018-02-23T13:13:17.390Z,1.30
2018-02-23T13:33:49.591Z,1.68
2018-02-23T13:54:25.441Z,1.80
2018-02-23T14:15:00.710Z,1.93
2018-02-23T14:35:35.059Z,2.03
2018-02-23T14:56:10.335Z,2.20
2018-02-23T15:16:44.372Z,2.90
2018-02-23T15:37:15.706Z,3.93
2018-02-23T16:19:06.760Z,2.76
2018-02-23T16:39:41.057Z,2.15
2018-02-23T17:00:14.890Z,1.84
2018-02-23T17:20:52.254Z,1.51
2018-02-23T17:41:26.871Z,1.22
2018-02-23T18:02:03.717Z,1.09
2018-02-23T18:22:42.985Z,0.90
2018-02-23T18:43:22.512Z,0.85
2018-02-23T19:03:58.441Z,0.56
2018-02-23T19:24:36.782Z,0.47
2018-02-23T19:45:13.904Z,0.33
2018-02-23T20:05:54.549Z,0.11
2018-02-23T20:26:31.512Z,-0.01
2018-02-23T20:47:08.040Z,-0.10
2018-02-23T21:07:42.971Z,-0.33
2018-02-23T21:28:20.509Z,-0.43
2018-02-23T21:48:55.360Z,-0.61
2018-02-23T22:09:31.980Z,-0.74
2018-02-23T22:30:08.056Z,-0.94
2018-02-23T22:50:45.174Z,-1.17
2018-02-23T23:11:21.361Z,-1.31
2018-02-23T23:31:58.782Z,-1.50
2018-02-23T23:52:36.815Z,-1.74
